sensor_id;sensor_type;location;lat;lon;timestamp;P1;durP1;ratioP1;P2;durP2;ratioP2
24467;SDS011;12634;50.852;5.676;2023-06-14T00:01:13;6.78;;;4.75;;
24467;SDS011;12634;50.852;5.676;2023-06-14T00:03:40;6.57;;;5.03;;
24467;SDS011;12634;50.852;5.676;2023-06-14T00:06:09;10.88;;;4.78;;
24467;SDS011;12634;50.852;5.676;2023-06-14T00:08:36;8.82;;;5.05;;
24467;SDS011;12634;50.852;5.676;2023-06-14T00:11:04;10.38;;;4.90;;
24467;SDS011;12634;50.852;5.676;2023-06-14T00:13:32;7.43;;;5.03;;
24467;SDS011;12634;50.852;5.676;2023-06-14T00:15:59;12.27;;;5.70;;
24467;SDS011;12634;50.852;5.676;2023-06-14T00:18:26;13.75;;;6.15;;
24467;SDS011;12634;50.852;5.676;2023-06-14T00:20:54;9.05;;;6.38;;
24467;SDS011;12634;50.852;5.676;2023-06-14T00:23:23;12.73;;;6.13;;
24467;SDS011;12634;50.852;5.676;2023-06-14T00:25:50;10.10;;;6.75;;
24467;SDS011;12634;50.852;5.676;2023-06-14T00:28:17;9.05;;;6.57;;
24467;SDS011;12634;50.852;5.676;2023-06-14T00:30:45;8.85;;;6.82;;
24467;SDS011;12634;50.852;5.676;2023-06-14T00:33:12;10.77;;;6.45;;
24467;SDS011;12634;50.852;5.676;2023-06-14T00:35:39;9.18;;;6.32;;
24467;SDS011;12634;50.852;5.676;2023-06-14T00:38:07;9.95;;;6.03;;
24467;SDS011;12634;50.852;5.676;2023-06-14T00:40:35;9.82;;;6.50;;
24467;SDS011;12634;50.852;5.676;2023-06-14T00:43:02;9.85;;;6.20;;
24467;SDS011;12634;50.852;5.676;2023-06-14T00:45:29;8.38;;;6.05;;
24467;SDS011;12634;50.852;5.676;2023-06-14T00:48:01;10.13;;;5.78;;
24467;SDS011;12634;50.852;5.676;2023-06-14T00:50:28;12.60;;;7.32;;
24467;SDS011;12634;50.852;5.676;2023-06-14T00:52:58;12.57;;;5.97;;
24467;SDS011;12634;50.852;5.676;2023-06-14T00:55:26;9.15;;;6.63;;
24467;SDS011;12634;50.852;5.676;2023-06-14T00:57:55;11.13;;;6.18;;
24467;SDS011;12634;50.852;5.676;2023-06-14T01:00:22;8.07;;;6.90;;
24467;SDS011;12634;50.852;5.676;2023-06-14T01:02:49;9.80;;;6.32;;
24467;SDS011;12634;50.852;5.676;2023-06-14T01:05:16;11.05;;;6.28;;
24467;SDS011;12634;50.852;5.676;2023-06-14T01:07:51;8.15;;;6.45;;
24467;SDS011;12634;50.852;5.676;2023-06-14T01:10:31;9.77;;;4.88;;
24467;SDS011;12634;50.852;5.676;2023-06-14T01:13:07;7.78;;;5.60;;
24467;SDS011;12634;50.852;5.676;2023-06-14T01:15:38;12.63;;;5.57;;
24467;SDS011;12634;50.852;5.676;2023-06-14T01:18:07;13.27;;;5.50;;
24467;SDS011;12634;50.852;5.676;2023-06-14T01:20:42;9.32;;;5.50;;
24467;SDS011;12634;50.852;5.676;2023-06-14T01:23:12;10.48;;;5.60;;
24467;SDS011;12634;50.852;5.676;2023-06-14T01:25:39;8.55;;;4.95;;
24467;SDS011;12634;50.852;5.676;2023-06-14T01:28:10;9.40;;;5.47;;
24467;SDS011;12634;50.852;5.676;2023-06-14T01:30:39;7.93;;;5.72;;
24467;SDS011;12634;50.852;5.676;2023-06-14T01:33:10;13.45;;;5.43;;
24467;SDS011;12634;50.852;5.676;2023-06-14T01:35:39;9.38;;;5.65;;
24467;SDS011;12634;50.852;5.676;2023-06-14T01:38:07;7.38;;;5.03;;
24467;SDS011;12634;50.852;5.676;2023-06-14T01:40:36;12.05;;;5.03;;
24467;SDS011;12634;50.852;5.676;2023-06-14T01:43:04;11.88;;;5.28;;
24467;SDS011;12634;50.852;5.676;2023-06-14T01:45:33;8.80;;;5.28;;
24467;SDS011;12634;50.852;5.676;2023-06-14T01:48:00;10.38;;;4.93;;
24467;SDS011;12634;50.852;5.676;2023-06-14T01:50:28;8.82;;;5.35;;
24467;SDS011;12634;50.852;5.676;2023-06-14T01:52:57;9.63;;;5.47;;
24467;SDS011;12634;50.852;5.676;2023-06-14T01:55:24;6.10;;;5.10;;
24467;SDS011;12634;50.852;5.676;2023-06-14T01:57:53;13.77;;;5.20;;
24467;SDS011;12634;50.852;5.676;2023-06-14T02:00:20;8.45;;;5.63;;
24467;SDS011;12634;50.852;5.676;2023-06-14T02:02:48;8.38;;;5.93;;
24467;SDS011;12634;50.852;5.676;2023-06-14T02:05:15;11.32;;;5.80;;
24467;SDS011;12634;50.852;5.676;2023-06-14T02:07:44;11.13;;;5.80;;
24467;SDS011;12634;50.852;5.676;2023-06-14T02:10:11;7.82;;;5.57;;
24467;SDS011;12634;50.852;5.676;2023-06-14T02:12:39;9.82;;;5.40;;
24467;SDS011;12634;50.852;5.676;2023-06-14T02:15:08;10.52;;;5.28;;
24467;SDS011;12634;50.852;5.676;2023-06-14T02:17:43;10.07;;;5.85;;
24467;SDS011;12634;50.852;5.676;2023-06-14T02:20:12;9.98;;;6.32;;
24467;SDS011;12634;50.852;5.676;2023-06-14T02:22:39;8.82;;;5.88;;
24467;SDS011;12634;50.852;5.676;2023-06-14T02:25:07;8.77;;;6.13;;
24467;SDS011;12634;50.852;5.676;2023-06-14T02:27:34;10.25;;;5.95;;
24467;SDS011;12634;50.852;5.676;2023-06-14T02:30:02;10.18;;;6.78;;
24467;SDS011;12634;50.852;5.676;2023-06-14T02:32:31;10.25;;;6.25;;
24467;SDS011;12634;50.852;5.676;2023-06-14T02:34:59;12.15;;;6.40;;
24467;SDS011;12634;50.852;5.676;2023-06-14T02:37:26;10.55;;;6.68;;
24467;SDS011;12634;50.852;5.676;2023-06-14T02:39:53;11.15;;;6.47;;
24467;SDS011;12634;50.852;5.676;2023-06-14T02:42:22;10.05;;;6.22;;
24467;SDS011;12634;50.852;5.676;2023-06-14T02:44:49;13.40;;;6.32;;
24467;SDS011;12634;50.852;5.676;2023-06-14T02:47:17;11.43;;;6.47;;
24467;SDS011;12634;50.852;5.676;2023-06-14T02:49:45;10.43;;;5.70;;
24467;SDS011;12634;50.852;5.676;2023-06-14T02:52:13;13.32;;;5.95;;
24467;SDS011;12634;50.852;5.676;2023-06-14T02:54:40;9.85;;;6.25;;
24467;SDS011;12634;50.852;5.676;2023-06-14T02:57:07;9.82;;;6.47;;
24467;SDS011;12634;50.852;5.676;2023-06-14T02:59:35;9.02;;;6.28;;
24467;SDS011;12634;50.852;5.676;2023-06-14T03:02:03;11.60;;;6.47;;
24467;SDS011;12634;50.852;5.676;2023-06-14T03:04:30;8.43;;;6.30;;
24467;SDS011;12634;50.852;5.676;2023-06-14T03:07:04;12.70;;;6.40;;
24467;SDS011;12634;50.852;5.676;2023-06-14T03:09:34;8.52;;;6.75;;
24467;SDS011;12634;50.852;5.676;2023-06-14T03:12:02;9.07;;;6.40;;
24467;SDS011;12634;50.852;5.676;2023-06-14T03:14:30;7.30;;;6.22;;
24467;SDS011;12634;50.852;5.676;2023-06-14T03:16:58;9.57;;;6.53;;
24467;SDS011;12634;50.852;5.676;2023-06-14T03:19:25;9.70;;;7.03;;
24467;SDS011;12634;50.852;5.676;2023-06-14T03:21:52;10.57;;;7.10;;
24467;SDS011;12634;50.852;5.676;2023-06-14T03:24:23;10.90;;;6.35;;
24467;SDS011;12634;50.852;5.676;2023-06-14T03:26:52;12.93;;;7.63;;
24467;SDS011;12634;50.852;5.676;2023-06-14T03:29:19;9.57;;;6.80;;
24467;SDS011;12634;50.852;5.676;2023-06-14T03:31:56;8.43;;;5.95;;
24467;SDS011;12634;50.852;5.676;2023-06-14T03:34:24;8.23;;;6.25;;
24467;SDS011;12634;50.852;5.676;2023-06-14T03:36:52;11.32;;;6.78;;
24467;SDS011;12634;50.852;5.676;2023-06-14T03:39:19;8.18;;;6.10;;
24467;SDS011;12634;50.852;5.676;2023-06-14T03:41:48;9.65;;;6.07;;
24467;SDS011;12634;50.852;5.676;2023-06-14T03:44:15;9.80;;;6.35;;
24467;SDS011;12634;50.852;5.676;2023-06-14T03:46:43;9.52;;;6.38;;
24467;SDS011;12634;50.852;5.676;2023-06-14T03:49:11;11.77;;;7.00;;
24467;SDS011;12634;50.852;5.676;2023-06-14T03:51:38;8.90;;;6.10;;
24467;SDS011;12634;50.852;5.676;2023-06-14T03:54:06;13.25;;;7.22;;
24467;SDS011;12634;50.852;5.676;2023-06-14T03:56:33;8.70;;;6.68;;
24467;SDS011;12634;50.852;5.676;2023-06-14T03:59:02;10.25;;;6.90;;
24467;SDS011;12634;50.852;5.676;2023-06-14T04:01:29;10.00;;;7.07;;
24467;SDS011;12634;50.852;5.676;2023-06-14T04:03:58;10.77;;;7.07;;
24467;SDS011;12634;50.852;5.676;2023-06-14T04:06:26;10.00;;;6.78;;
24467;SDS011;12634;50.852;5.676;2023-06-14T04:08:58;10.38;;;6.85;;
24467;SDS011;12634;50.852;5.676;2023-06-14T04:11:29;8.63;;;6.88;;
24467;SDS011;12634;50.852;5.676;2023-06-14T04:13:57;11.85;;;7.20;;
24467;SDS011;12634;50.852;5.676;2023-06-14T04:16:26;11.48;;;7.18;;
24467;SDS011;12634;50.852;5.676;2023-06-14T04:18:54;11.00;;;6.65;;
24467;SDS011;12634;50.852;5.676;2023-06-14T04:21:23;10.70;;;7.30;;
24467;SDS011;12634;50.852;5.676;2023-06-14T04:23:52;13.00;;;7.20;;
24467;SDS011;12634;50.852;5.676;2023-06-14T04:26:20;9.20;;;7.00;;
24467;SDS011;12634;50.852;5.676;2023-06-14T04:28:49;10.48;;;7.13;;
24467;SDS011;12634;50.852;5.676;2023-06-14T04:31:16;15.20;;;7.53;;
24467;SDS011;12634;50.852;5.676;2023-06-14T04:33:45;13.77;;;7.63;;
24467;SDS011;12634;50.852;5.676;2023-06-14T04:36:12;8.68;;;7.25;;
24467;SDS011;12634;50.852;5.676;2023-06-14T04:38:43;9.60;;;7.07;;
24467;SDS011;12634;50.852;5.676;2023-06-14T04:41:11;18.50;;;7.78;;
24467;SDS011;12634;50.852;5.676;2023-06-14T04:43:38;10.77;;;7.57;;
24467;SDS011;12634;50.852;5.676;2023-06-14T04:46:08;11.90;;;7.07;;
24467;SDS011;12634;50.852;5.676;2023-06-14T04:48:36;13.68;;;7.95;;
24467;SDS011;12634;50.852;5.676;2023-06-14T04:51:07;9.25;;;6.82;;
24467;SDS011;12634;50.852;5.676;2023-06-14T04:53:35;10.48;;;6.88;;
24467;SDS011;12634;50.852;5.676;2023-06-14T04:56:02;11.77;;;7.47;;
24467;SDS011;12634;50.852;5.676;2023-06-14T04:58:29;12.68;;;7.88;;
24467;SDS011;12634;50.852;5.676;2023-06-14T05:00:57;11.73;;;8.02;;
24467;SDS011;12634;50.852;5.676;2023-06-14T05:03:24;11.75;;;7.63;;
24467;SDS011;12634;50.852;5.676;2023-06-14T05:05:52;16.10;;;8.18;;
24467;SDS011;12634;50.852;5.676;2023-06-14T05:08:21;11.20;;;7.75;;
24467;SDS011;12634;50.852;5.676;2023-06-14T05:10:49;16.38;;;8.25;;
24467;SDS011;12634;50.852;5.676;2023-06-14T05:13:17;11.98;;;8.27;;
24467;SDS011;12634;50.852;5.676;2023-06-14T05:15:44;14.20;;;7.82;;
24467;SDS011;12634;50.852;5.676;2023-06-14T05:18:11;14.45;;;8.20;;
24467;SDS011;12634;50.852;5.676;2023-06-14T05:20:40;13.80;;;7.45;;
24467;SDS011;12634;50.852;5.676;2023-06-14T05:23:08;10.82;;;7.45;;
24467;SDS011;12634;50.852;5.676;2023-06-14T05:25:41;9.68;;;6.75;;
24467;SDS011;12634;50.852;5.676;2023-06-14T05:28:09;12.13;;;7.30;;
24467;SDS011;12634;50.852;5.676;2023-06-14T05:30:37;8.93;;;7.72;;
24467;SDS011;12634;50.852;5.676;2023-06-14T05:33:04;12.20;;;6.78;;
24467;SDS011;12634;50.852;5.676;2023-06-14T05:35:31;9.05;;;7.05;;
24467;SDS011;12634;50.852;5.676;2023-06-14T05:37:59;15.32;;;7.28;;
24467;SDS011;12634;50.852;5.676;2023-06-14T05:40:26;14.45;;;7.15;;
24467;SDS011;12634;50.852;5.676;2023-06-14T05:42:54;12.00;;;6.82;;
24467;SDS011;12634;50.852;5.676;2023-06-14T05:45:22;12.40;;;7.25;;
24467;SDS011;12634;50.852;5.676;2023-06-14T05:47:49;10.70;;;6.88;;
24467;SDS011;12634;50.852;5.676;2023-06-14T05:50:17;12.63;;;7.40;;
24467;SDS011;12634;50.852;5.676;2023-06-14T05:52:44;13.18;;;7.50;;
24467;SDS011;12634;50.852;5.676;2023-06-14T05:55:11;16.73;;;7.00;;
24467;SDS011;12634;50.852;5.676;2023-06-14T05:57:38;12.82;;;6.75;;
24467;SDS011;12634;50.852;5.676;2023-06-14T06:00:08;11.40;;;7.15;;
24467;SDS011;12634;50.852;5.676;2023-06-14T06:02:39;16.67;;;7.45;;
24467;SDS011;12634;50.852;5.676;2023-06-14T06:05:07;18.23;;;7.45;;
24467;SDS011;12634;50.852;5.676;2023-06-14T06:07:35;12.02;;;6.57;;
24467;SDS011;12634;50.852;5.676;2023-06-14T06:10:02;12.90;;;7.43;;
24467;SDS011;12634;50.852;5.676;2023-06-14T06:12:30;12.05;;;7.07;;
24467;SDS011;12634;50.852;5.676;2023-06-14T06:14:57;10.75;;;6.57;;
24467;SDS011;12634;50.852;5.676;2023-06-14T06:17:26;13.93;;;6.75;;
24467;SDS011;12634;50.852;5.676;2023-06-14T06:19:53;10.80;;;5.65;;
24467;SDS011;12634;50.852;5.676;2023-06-14T06:22:21;9.23;;;5.93;;
24467;SDS011;12634;50.852;5.676;2023-06-14T06:24:48;14.52;;;6.38;;
24467;SDS011;12634;50.852;5.676;2023-06-14T06:27:15;8.57;;;5.60;;
24467;SDS011;12634;50.852;5.676;2023-06-14T06:29:44;13.57;;;6.28;;
24467;SDS011;12634;50.852;5.676;2023-06-14T06:32:11;10.45;;;5.20;;
24467;SDS011;12634;50.852;5.676;2023-06-14T06:34:39;13.30;;;5.70;;
24467;SDS011;12634;50.852;5.676;2023-06-14T06:37:06;10.40;;;5.20;;
24467;SDS011;12634;50.852;5.676;2023-06-14T06:39:33;10.55;;;4.97;;
24467;SDS011;12634;50.852;5.676;2023-06-14T06:42:01;9.40;;;4.82;;
24467;SDS011;12634;50.852;5.676;2023-06-14T06:44:31;10.75;;;4.47;;
24467;SDS011;12634;50.852;5.676;2023-06-14T06:46:58;10.05;;;4.47;;
24467;SDS011;12634;50.852;5.676;2023-06-14T06:49:25;8.63;;;4.32;;
24467;SDS011;12634;50.852;5.676;2023-06-14T06:52:00;9.35;;;4.05;;
24467;SDS011;12634;50.852;5.676;2023-06-14T06:54:28;12.57;;;4.68;;
24467;SDS011;12634;50.852;5.676;2023-06-14T06:56:55;7.28;;;4.47;;
24467;SDS011;12634;50.852;5.676;2023-06-14T06:59:23;8.90;;;4.20;;
24467;SDS011;12634;50.852;5.676;2023-06-14T07:01:50;8.13;;;3.75;;
24467;SDS011;12634;50.852;5.676;2023-06-14T07:04:17;5.95;;;3.45;;
24467;SDS011;12634;50.852;5.676;2023-06-14T07:06:45;9.75;;;4.22;;
24467;SDS011;12634;50.852;5.676;2023-06-14T07:09:14;7.38;;;3.85;;
24467;SDS011;12634;50.852;5.676;2023-06-14T07:11:43;7.68;;;4.10;;
24467;SDS011;12634;50.852;5.676;2023-06-14T07:14:10;6.95;;;3.45;;
24467;SDS011;12634;50.852;5.676;2023-06-14T07:16:38;10.32;;;3.72;;
24467;SDS011;12634;50.852;5.676;2023-06-14T07:19:06;8.07;;;3.42;;
24467;SDS011;12634;50.852;5.676;2023-06-14T07:21:34;8.38;;;4.05;;
24467;SDS011;12634;50.852;5.676;2023-06-14T07:24:03;8.43;;;3.90;;
24467;SDS011;12634;50.852;5.676;2023-06-14T07:26:34;9.32;;;3.53;;
24467;SDS011;12634;50.852;5.676;2023-06-14T07:29:01;6.25;;;3.78;;
24467;SDS011;12634;50.852;5.676;2023-06-14T07:31:28;7.65;;;3.60;;
24467;SDS011;12634;50.852;5.676;2023-06-14T07:33:55;5.65;;;2.92;;
24467;SDS011;12634;50.852;5.676;2023-06-14T07:36:23;8.27;;;3.58;;
24467;SDS011;12634;50.852;5.676;2023-06-14T07:38:50;10.00;;;3.90;;
24467;SDS011;12634;50.852;5.676;2023-06-14T07:41:17;6.40;;;3.28;;
24467;SDS011;12634;50.852;5.676;2023-06-14T07:43:46;11.02;;;3.60;;
24467;SDS011;12634;50.852;5.676;2023-06-14T07:46:13;7.97;;;3.90;;
24467;SDS011;12634;50.852;5.676;2023-06-14T07:48:41;8.02;;;3.80;;
24467;SDS011;12634;50.852;5.676;2023-06-14T07:51:08;9.40;;;3.53;;
24467;SDS011;12634;50.852;5.676;2023-06-14T07:53:35;7.47;;;3.50;;
24467;SDS011;12634;50.852;5.676;2023-06-14T07:56:02;6.38;;;3.15;;
24467;SDS011;12634;50.852;5.676;2023-06-14T07:58:30;8.48;;;3.50;;
24467;SDS011;12634;50.852;5.676;2023-06-14T08:00:58;9.57;;;3.90;;
24467;SDS011;12634;50.852;5.676;2023-06-14T08:03:28;9.00;;;3.90;;
24467;SDS011;12634;50.852;5.676;2023-06-14T08:05:55;9.13;;;4.25;;
24467;SDS011;12634;50.852;5.676;2023-06-14T08:08:23;6.63;;;3.70;;
24467;SDS011;12634;50.852;5.676;2023-06-14T08:10:50;10.07;;;3.60;;
24467;SDS011;12634;50.852;5.676;2023-06-14T08:13:17;9.02;;;3.80;;
24467;SDS011;12634;50.852;5.676;2023-06-14T08:15:44;6.53;;;3.50;;
24467;SDS011;12634;50.852;5.676;2023-06-14T08:18:13;11.48;;;3.55;;
24467;SDS011;12634;50.852;5.676;2023-06-14T08:20:40;7.97;;;3.08;;
24467;SDS011;12634;50.852;5.676;2023-06-14T08:23:09;9.55;;;3.53;;
24467;SDS011;12634;50.852;5.676;2023-06-14T08:25:36;6.35;;;3.20;;
24467;SDS011;12634;50.852;5.676;2023-06-14T08:28:03;5.78;;;3.03;;
24467;SDS011;12634;50.852;5.676;2023-06-14T08:30:31;7.15;;;3.20;;
24467;SDS011;12634;50.852;5.676;2023-06-14T08:32:58;8.82;;;3.63;;
24467;SDS011;12634;50.852;5.676;2023-06-14T08:35:27;8.00;;;3.15;;
24467;SDS011;12634;50.852;5.676;2023-06-14T08:37:55;8.30;;;3.05;;
24467;SDS011;12634;50.852;5.676;2023-06-14T08:40:22;7.25;;;2.80;;
24467;SDS011;12634;50.852;5.676;2023-06-14T08:42:50;8.75;;;3.92;;
24467;SDS011;12634;50.852;5.676;2023-06-14T08:45:19;14.10;;;3.53;;
24467;SDS011;12634;50.852;5.676;2023-06-14T08:47:47;11.85;;;3.63;;
24467;SDS011;12634;50.852;5.676;2023-06-14T08:50:19;15.15;;;3.80;;
24467;SDS011;12634;50.852;5.676;2023-06-14T08:52:51;10.93;;;3.63;;
24467;SDS011;12634;50.852;5.676;2023-06-14T08:57:51;9.85;;;2.90;;
24467;SDS011;12634;50.852;5.676;2023-06-14T09:00:20;11.73;;;3.13;;
24467;SDS011;12634;50.852;5.676;2023-06-14T09:02:49;10.63;;;3.17;;
24467;SDS011;12634;50.852;5.676;2023-06-14T09:05:21;9.90;;;2.70;;
24467;SDS011;12634;50.852;5.676;2023-06-14T09:07:50;5.57;;;3.03;;
24467;SDS011;12634;50.852;5.676;2023-06-14T09:10:17;10.55;;;2.78;;
24467;SDS011;12634;50.852;5.676;2023-06-14T09:12:47;7.75;;;2.60;;
24467;SDS011;12634;50.852;5.676;2023-06-14T09:15:14;9.52;;;2.75;;
24467;SDS011;12634;50.852;5.676;2023-06-14T09:17:42;6.53;;;2.50;;
24467;SDS011;12634;50.852;5.676;2023-06-14T09:20:10;5.45;;;2.25;;
24467;SDS011;12634;50.852;5.676;2023-06-14T09:22:39;11.55;;;2.28;;
24467;SDS011;12634;50.852;5.676;2023-06-14T09:25:08;10.90;;;2.55;;
24467;SDS011;12634;50.852;5.676;2023-06-14T09:27:37;4.25;;;2.05;;
24467;SDS011;12634;50.852;5.676;2023-06-14T09:30:08;6.07;;;2.10;;
24467;SDS011;12634;50.852;5.676;2023-06-14T09:32:36;8.65;;;2.63;;
24467;SDS011;12634;50.852;5.676;2023-06-14T09:35:05;6.80;;;2.20;;
24467;SDS011;12634;50.852;5.676;2023-06-14T09:37:33;5.55;;;2.28;;
24467;SDS011;12634;50.852;5.676;2023-06-14T09:40:04;7.45;;;2.53;;
24467;SDS011;12634;50.852;5.676;2023-06-14T09:42:33;7.93;;;2.35;;
24467;SDS011;12634;50.852;5.676;2023-06-14T09:45:01;5.57;;;2.17;;
24467;SDS011;12634;50.852;5.676;2023-06-14T09:47:30;4.43;;;2.00;;
24467;SDS011;12634;50.852;5.676;2023-06-14T09:49:57;11.20;;;2.38;;
24467;SDS011;12634;50.852;5.676;2023-06-14T09:52:25;4.55;;;2.10;;
24467;SDS011;12634;50.852;5.676;2023-06-14T09:54:53;6.80;;;1.73;;
24467;SDS011;12634;50.852;5.676;2023-06-14T09:57:23;11.73;;;2.42;;
24467;SDS011;12634;50.852;5.676;2023-06-14T09:59:56;5.72;;;2.08;;
24467;SDS011;12634;50.852;5.676;2023-06-14T10:02:26;8.68;;;2.53;;
24467;SDS011;12634;50.852;5.676;2023-06-14T10:04:58;3.00;;;1.92;;
24467;SDS011;12634;50.852;5.676;2023-06-14T10:07:32;6.97;;;2.15;;
24467;SDS011;12634;50.852;5.676;2023-06-14T10:10:01;4.78;;;2.20;;
24467;SDS011;12634;50.852;5.676;2023-06-14T10:12:30;4.00;;;2.17;;
24467;SDS011;12634;50.852;5.676;2023-06-14T10:14:58;3.63;;;2.10;;
24467;SDS011;12634;50.852;5.676;2023-06-14T10:17:31;4.38;;;2.10;;
24467;SDS011;12634;50.852;5.676;2023-06-14T10:20:10;5.00;;;2.08;;
24467;SDS011;12634;50.852;5.676;2023-06-14T10:22:46;3.97;;;2.22;;
24467;SDS011;12634;50.852;5.676;2023-06-14T10:28:14;5.40;;;2.10;;
24467;SDS011;12634;50.852;5.676;2023-06-14T10:31:03;6.53;;;2.22;;
24467;SDS011;12634;50.852;5.676;2023-06-14T10:33:34;6.72;;;1.85;;
24467;SDS011;12634;50.852;5.676;2023-06-14T10:36:23;5.97;;;2.33;;
24467;SDS011;12634;50.852;5.676;2023-06-14T10:39:06;7.00;;;1.80;;
24467;SDS011;12634;50.852;5.676;2023-06-14T10:41:37;3.08;;;1.83;;
24467;SDS011;12634;50.852;5.676;2023-06-14T10:47:07;5.32;;;2.00;;
24467;SDS011;12634;50.852;5.676;2023-06-14T10:49:37;3.37;;;2.03;;
24467;SDS011;12634;50.852;5.676;2023-06-14T10:52:10;5.65;;;1.90;;
24467;SDS011;12634;50.852;5.676;2023-06-14T10:55:00;6.32;;;2.00;;
24467;SDS011;12634;50.852;5.676;2023-06-14T10:57:34;3.42;;;1.60;;
24467;SDS011;12634;50.852;5.676;2023-06-14T11:00:02;5.43;;;2.10;;
24467;SDS011;12634;50.852;5.676;2023-06-14T11:05:53;2.90;;;1.85;;
24467;SDS011;12634;50.852;5.676;2023-06-14T11:11:20;3.80;;;1.55;;
24467;SDS011;12634;50.852;5.676;2023-06-14T11:13:50;4.03;;;1.50;;
24467;SDS011;12634;50.852;5.676;2023-06-14T11:16:18;3.33;;;1.50;;
24467;SDS011;12634;50.852;5.676;2023-06-14T11:18:45;2.45;;;1.20;;
24467;SDS011;12634;50.852;5.676;2023-06-14T11:21:16;3.03;;;1.50;;
24467;SDS011;12634;50.852;5.676;2023-06-14T11:23:48;4.13;;;1.40;;
24467;SDS011;12634;50.852;5.676;2023-06-14T11:26:23;3.45;;;1.30;;
24467;SDS011;12634;50.852;5.676;2023-06-14T11:28:54;2.97;;;1.52;;
24467;SDS011;12634;50.852;5.676;2023-06-14T11:31:24;2.78;;;1.50;;
24467;SDS011;12634;50.852;5.676;2023-06-14T11:33:53;2.22;;;1.42;;
24467;SDS011;12634;50.852;5.676;2023-06-14T11:36:22;5.05;;;1.33;;
24467;SDS011;12634;50.852;5.676;2023-06-14T11:38:49;2.97;;;1.33;;
24467;SDS011;12634;50.852;5.676;2023-06-14T11:41:24;2.47;;;1.45;;
24467;SDS011;12634;50.852;5.676;2023-06-14T11:43:52;2.70;;;1.35;;
24467;SDS011;12634;50.852;5.676;2023-06-14T11:46:19;3.40;;;1.30;;
24467;SDS011;12634;50.852;5.676;2023-06-14T11:48:49;3.47;;;1.50;;
24467;SDS011;12634;50.852;5.676;2023-06-14T11:51:19;3.50;;;1.50;;
24467;SDS011;12634;50.852;5.676;2023-06-14T11:53:47;3.08;;;1.70;;
24467;SDS011;12634;50.852;5.676;2023-06-14T11:56:15;2.58;;;1.90;;
24467;SDS011;12634;50.852;5.676;2023-06-14T11:58:42;3.20;;;1.48;;
24467;SDS011;12634;50.852;5.676;2023-06-14T12:01:14;4.20;;;1.30;;
24467;SDS011;12634;50.852;5.676;2023-06-14T12:03:46;4.38;;;1.55;;
24467;SDS011;12634;50.852;5.676;2023-06-14T12:06:15;3.70;;;1.50;;
24467;SDS011;12634;50.852;5.676;2023-06-14T12:08:43;3.75;;;1.67;;
24467;SDS011;12634;50.852;5.676;2023-06-14T12:11:13;3.08;;;1.40;;
24467;SDS011;12634;50.852;5.676;2023-06-14T12:13:42;4.13;;;1.50;;
24467;SDS011;12634;50.852;5.676;2023-06-14T12:16:10;4.18;;;1.63;;
24467;SDS011;12634;50.852;5.676;2023-06-14T12:18:38;4.90;;;1.63;;
24467;SDS011;12634;50.852;5.676;2023-06-14T12:21:08;3.05;;;1.48;;
24467;SDS011;12634;50.852;5.676;2023-06-14T12:23:42;5.32;;;1.70;;
24467;SDS011;12634;50.852;5.676;2023-06-14T12:26:13;7.05;;;1.50;;
24467;SDS011;12634;50.852;5.676;2023-06-14T12:28:41;4.55;;;1.63;;
24467;SDS011;12634;50.852;5.676;2023-06-14T12:31:09;2.95;;;1.40;;
24467;SDS011;12634;50.852;5.676;2023-06-14T12:33:37;3.58;;;1.60;;
24467;SDS011;12634;50.852;5.676;2023-06-14T12:36:04;3.72;;;1.40;;
24467;SDS011;12634;50.852;5.676;2023-06-14T12:38:33;2.25;;;1.63;;
24467;SDS011;12634;50.852;5.676;2023-06-14T12:41:00;4.38;;;1.70;;
24467;SDS011;12634;50.852;5.676;2023-06-14T12:43:29;4.30;;;1.80;;
24467;SDS011;12634;50.852;5.676;2023-06-14T12:45:56;4.18;;;1.73;;
24467;SDS011;12634;50.852;5.676;2023-06-14T12:48:23;3.05;;;1.65;;
24467;SDS011;12634;50.852;5.676;2023-06-14T12:50:52;4.45;;;1.58;;
24467;SDS011;12634;50.852;5.676;2023-06-14T12:53:19;3.95;;;1.70;;
24467;SDS011;12634;50.852;5.676;2023-06-14T12:55:46;4.47;;;1.58;;
24467;SDS011;12634;50.852;5.676;2023-06-14T12:58:13;3.58;;;1.48;;
24467;SDS011;12634;50.852;5.676;2023-06-14T13:00:43;3.90;;;1.67;;
24467;SDS011;12634;50.852;5.676;2023-06-14T13:03:10;6.00;;;1.73;;
24467;SDS011;12634;50.852;5.676;2023-06-14T13:05:37;4.38;;;1.70;;
24467;SDS011;12634;50.852;5.676;2023-06-14T13:08:06;4.38;;;1.73;;
24467;SDS011;12634;50.852;5.676;2023-06-14T13:10:34;5.63;;;1.58;;
24467;SDS011;12634;50.852;5.676;2023-06-14T13:13:02;3.78;;;1.70;;
24467;SDS011;12634;50.852;5.676;2023-06-14T13:15:29;4.40;;;1.88;;
24467;SDS011;12634;50.852;5.676;2023-06-14T13:17:57;5.13;;;1.40;;
24467;SDS011;12634;50.852;5.676;2023-06-14T13:20:25;4.30;;;1.80;;
24467;SDS011;12634;50.852;5.676;2023-06-14T13:22:52;4.85;;;1.70;;
24467;SDS011;12634;50.852;5.676;2023-06-14T13:25:19;4.88;;;1.70;;
24467;SDS011;12634;50.852;5.676;2023-06-14T13:27:47;5.20;;;1.88;;
24467;SDS011;12634;50.852;5.676;2023-06-14T13:30:14;4.70;;;1.50;;
24467;SDS011;12634;50.852;5.676;2023-06-14T13:32:42;3.13;;;1.75;;
24467;SDS011;12634;50.852;5.676;2023-06-14T13:35:10;3.70;;;1.77;;
24467;SDS011;12634;50.852;5.676;2023-06-14T13:37:37;7.00;;;1.73;;
24467;SDS011;12634;50.852;5.676;2023-06-14T13:40:05;3.78;;;1.40;;
24467;SDS011;12634;50.852;5.676;2023-06-14T13:42:33;5.45;;;1.63;;
24467;SDS011;12634;50.852;5.676;2023-06-14T13:45:01;2.70;;;1.40;;
24467;SDS011;12634;50.852;5.676;2023-06-14T13:47:28;4.05;;;1.67;;
24467;SDS011;12634;50.852;5.676;2023-06-14T13:49:56;3.33;;;1.48;;
24467;SDS011;12634;50.852;5.676;2023-06-14T13:52:25;2.88;;;1.70;;
24467;SDS011;12634;50.852;5.676;2023-06-14T13:54:52;3.60;;;1.55;;
24467;SDS011;12634;50.852;5.676;2023-06-14T13:57:19;4.38;;;1.52;;
24467;SDS011;12634;50.852;5.676;2023-06-14T13:59:46;3.42;;;1.20;;
24467;SDS011;12634;50.852;5.676;2023-06-14T14:02:14;2.92;;;1.33;;
24467;SDS011;12634;50.852;5.676;2023-06-14T14:04:41;3.17;;;1.60;;
24467;SDS011;12634;50.852;5.676;2023-06-14T14:07:08;4.13;;;1.15;;
24467;SDS011;12634;50.852;5.676;2023-06-14T14:09:37;3.72;;;1.30;;
24467;SDS011;12634;50.852;5.676;2023-06-14T14:12:04;2.42;;;1.40;;
24467;SDS011;12634;50.852;5.676;2023-06-14T14:14:32;3.00;;;1.30;;
24467;SDS011;12634;50.852;5.676;2023-06-14T14:16:59;2.03;;;1.17;;
24467;SDS011;12634;50.852;5.676;2023-06-14T14:19:26;2.42;;;1.40;;
24467;SDS011;12634;50.852;5.676;2023-06-14T14:21:54;1.52;;;1.20;;
24467;SDS011;12634;50.852;5.676;2023-06-14T14:24:21;2.38;;;1.50;;
24467;SDS011;12634;50.852;5.676;2023-06-14T14:26:49;3.45;;;1.20;;
24467;SDS011;12634;50.852;5.676;2023-06-14T14:29:19;4.28;;;1.30;;
24467;SDS011;12634;50.852;5.676;2023-06-14T14:31:47;2.72;;;1.40;;
24467;SDS011;12634;50.852;5.676;2023-06-14T14:34:14;5.20;;;1.55;;
24467;SDS011;12634;50.852;5.676;2023-06-14T14:36:41;2.90;;;1.40;;
24467;SDS011;12634;50.852;5.676;2023-06-14T14:39:09;4.45;;;1.45;;
24467;SDS011;12634;50.852;5.676;2023-06-14T14:41:36;3.03;;;1.50;;
24467;SDS011;12634;50.852;5.676;2023-06-14T14:44:06;2.47;;;1.08;;
24467;SDS011;12634;50.852;5.676;2023-06-14T14:46:33;8.02;;;1.30;;
24467;SDS011;12634;50.852;5.676;2023-06-14T14:49:00;1.88;;;1.48;;
24467;SDS011;12634;50.852;5.676;2023-06-14T14:51:28;6.70;;;1.55;;
24467;SDS011;12634;50.852;5.676;2023-06-14T14:53:55;3.15;;;1.60;;
24467;SDS011;12634;50.852;5.676;2023-06-14T14:56:22;2.35;;;1.42;;
24467;SDS011;12634;50.852;5.676;2023-06-14T14:58:50;2.80;;;1.60;;
24467;SDS011;12634;50.852;5.676;2023-06-14T15:01:19;4.57;;;1.77;;
24467;SDS011;12634;50.852;5.676;2023-06-14T15:03:46;4.05;;;1.73;;
24467;SDS011;12634;50.852;5.676;2023-06-14T15:06:14;1.83;;;1.40;;